Morgan City, Mississippi
Current Conditions -  °F | °C
As of 1:53 AM on Thursday 18 Dec 2014 (Local Time) from KGWO Reporting Station
Overcast Overcast  
Wind Chill: 42°   Ceiling: 8000
Heat Index: 44°   Visibility: 10mi
Dew Point: 37°   Wind: 5mph
Humidity: 76%   Direction: 10°N
Pressure: 30.26"   Gusts: NA
Location:  33.38°N, 90.35°W
Report Text: KGWO 180753Z AUTO 01004KT 10SM OVC080 07/03 A3026 RMK AO2 SLP245 T00670028
Loading
Personal Weather Stations






























Interactive Weather Map New forecast layout! Learn more

10-Day Weather Forecast

Advertisements
Track Severe Weather on mobile